Flight Track Log - Related Links

Times and Time Zones

All times are in EDT time to prevent confusion due to time zone crossing. See the DAL1032 flight status page for this flight to view local times or setup timezone preferences in your user account.

Time Position Orientation Groundspeed Altitude Reporting Facility
EDT Latitude Longitude Course Direction KTS MPH feet Rate Location/Type
Sat 11:05:38 AM 43.6342 -110.7250 85° East 195 224 7,800  Level Salt Lake Center
Sat 11:06:40 AM 43.6767 -110.7033 20° North 166 191 9,300 1,210 Climbing Salt Lake Center
Sat 11:07:42 AM 43.7233 -110.6461 42° Northeast 215 247 10,300 1,306 Climbing Salt Lake Center
Sat 11:08:44 AM 43.8150 -110.5797 28° Northeast 298 343 12,000 1,887 Climbing Salt Lake Center
Sat 11:09:00 AM 43.8423 -109.9085 84° East  Level FlightAware Approximate
Sat 11:09:46 AM 43.8450 -110.4458 73° East 383 441 14,200  Level Salt Lake Center
Sat 11:10:00 AM 43.8538 -109.7358 85° East  Level FlightAware Approximate
Sat 11:10:49 AM 43.8300 -110.2942 98° East 397 457 17,000  Level Salt Lake Center
Sat 11:11:00 AM 43.8640 -109.5629 85° East  Level FlightAware Approximate
Sat 11:11:50 AM 43.8411 -110.1314 85° East 423 487 18,700  Level Salt Lake Center
Sat 11:12:52 AM 43.8514 -109.9497 85° East 433 498 21,100 2,081 Climbing Salt Lake Center
Sat 11:13:54 AM 43.8606 -109.7861 86° East 444 511 23,000 1,839 Climbing Salt Lake Center
Sat 11:14:56 AM 43.8703 -109.5881 86° East 460 529 24,900 1,645 Climbing Salt Lake Center
Sat 11:15:58 AM 43.8808 -109.4058 85° East 470 541 26,400 1,452 Climbing Salt Lake Center
Sat 11:17:00 AM 43.8897 -109.2217 86° East 478 550 27,900 1,463 Climbing Salt Lake Center
Sat 11:18:01 AM 43.8997 -109.0297 86° East 496 571 29,400 1,317 Climbing Salt Lake Center
Sat 11:19:03 AM 43.9092 -108.8369 86° East 502 578 30,600 968 Climbing Salt Lake Center
Sat 11:20:05 AM 43.9186 -108.6403 86° East 511 588 31,400 1,161 Climbing Salt Lake Center
Sat 11:21:07 AM 43.9292 -108.3994 86° East 523 602 33,000 1,016 Climbing Salt Lake Center
Sat 11:22:09 AM 43.9369 -108.2044 87° East 515 593 33,500 774 Climbing Salt Lake Center
Sat 11:23:11 AM 43.9444 -108.0081 87° East 514 592 34,600 968 Climbing Salt Lake Center
Sat 11:24:13 AM 43.9525 -107.8089 87° East 519 597 35,500 1,113 Climbing Salt Lake Center
Sat 11:25:15 AM 43.9592 -107.6106 87° East 519 597 36,900 1,113 Climbing Salt Lake Center
Sat 11:26:17 AM 43.9689 -107.3736 87° East 516 594 37,800 726 Climbing Salt Lake Center
Sat 11:27:19 AM 43.9750 -107.1750 87° East 519 597 38,400 581 Climbing Salt Lake Center
Sat 11:28:21 AM 43.9811 -106.9753 87° East 521 600 39,000 290 Climbing Salt Lake Center
Sat 11:29:23 AM 43.9881 -106.7789 87° East 516 594 39,000  Level Salt Lake Center
Sat 11:30:25 AM 43.9947 -106.5783 87° East 519 597 39,000  Level Salt Lake Center
Sat 11:31:33 AM 44.0269 -106.3331 80° East 516 594 39,000  Level Denver Center
Sat 11:32:35 AM 44.0714 -106.1528 71° East 513 590 39,000  Level Denver Center
Sat 11:33:37 AM 44.1244 -105.9433 70° East 514 592 39,000  Level Denver Center
Sat 11:34:39 AM 44.1678 -105.7650 71° East 511 588 39,000  Level Denver Center
Sat 11:35:41 AM 44.2189 -105.5572 71° East 508 585 39,000  Level Denver Center
Sat 11:36:43 AM 44.2631 -105.3775 71° East 509 586 39,000  Level Denver Center
Sat 11:37:46 AM 44.3117 -105.1725 72° East 502 578 39,000  Level Denver Center
Sat 11:38:48 AM 44.3539 -104.9947 72° East 502 578 39,000  Level Denver Center
Sat 11:39:50 AM 44.3961 -104.8164 72° East 503 579 39,000  Level Denver Center
Sat 11:40:52 AM 44.4453 -104.6086 72° East 503 579 39,000  Level Denver Center
Sat 11:41:54 AM 44.4872 -104.4317 72° East 502 578 39,000  Level Denver Center
Sat 11:42:56 AM 44.5356 -104.2211 72° East 505 581 39,000  Level Denver Center
Sat 11:43:58 AM 44.5767 -104.0408 72° East 507 583 39,000  Level Denver Center
Sat 11:45:00 AM 44.6236 -103.8308 72° East 506 582 39,000  Level Denver Center
Sat 11:46:02 AM 44.6636 -103.6519 72° East 503 579 39,000  Level Denver Center
Sat 11:47:04 AM 44.7094 -103.4433 73° East 499 574 39,000  Level Denver Center
Sat 11:48:06 AM 44.7511 -103.2578 72° East 498 573 39,000  Level Denver Center
Sat 11:49:08 AM 44.7844 -103.1086 72° East 500 575 39,000  Level Denver Center
Sat 11:50:22 AM 44.8333 -102.8844 73° East 500 575 39,000  Level Denver Center
Sat 11:51:37 AM 44.8819 -102.6589 73° East 502 578 39,000  Level Denver Center
Sat 11:52:39 AM 44.9297 -102.4333 73° East 501 577 39,000  Level Denver Center
Sat 11:53:41 AM 44.9769 -102.2081 73° East 500 575 39,000  Level Denver Center
Sat 11:54:43 AM 45.0167 -102.0211 73° East 498 573 39,000  Level Denver Center
Sat 11:55:45 AM 45.0547 -101.8328 74° East 497 572 39,000  Level Denver Center
Sat 11:57:06 AM 45.0714 -101.5586 85° East 501 577 39,000  Level Minneapolis Center
Sat 11:58:08 AM 45.0544 -101.3636 97° East 500 575 39,000  Level Minneapolis Center
Sat 11:59:10 AM 45.0397 -101.1661 96° East 503 579 39,000  Level Minneapolis Center
Sat 12:00:12 PM 45.0297 -100.9689 94° East 504 580 39,000  Level Minneapolis Center
Sat 12:01:14 PM 45.0156 -100.7714 96° East 505 581 39,000  Level Minneapolis Center
Sat 12:02:16 PM 45.0000 -100.5747 96° East 505 581 39,000  Level Minneapolis Center
Sat 12:03:18 PM 44.9822 -100.3397 96° East 504 580 39,000  Level Minneapolis Center
Sat 12:04:20 PM 44.9653 -100.1447 97° East 505 581 39,000  Level Minneapolis Center
Sat 12:05:22 PM 44.9483 -99.9494 97° East 523 602 39,000  Level Minneapolis Center
Sat 12:06:24 PM 44.9361 -99.7581 95° East 505 581 39,000  Level Minneapolis Center
Sat 12:07:26 PM 44.9189 -99.5303 96° East 492 566 39,000  Level Minneapolis Center
Sat 12:08:28 PM 44.9031 -99.3406 97° East 490 564 39,000  Level Minneapolis Center
Sat 12:09:30 PM 44.8861 -99.1508 97° East 489 563 39,000  Level Minneapolis Center
Sat 12:10:32 PM 44.8703 -98.9611 97° East 488 562 39,000  Level Minneapolis Center
Sat 12:11:34 PM 44.8531 -98.7714 97° East 489 563 39,000  Level Minneapolis Center
Sat 12:12:36 PM 44.8356 -98.5811 97° East 489 563 39,000  Level Minneapolis Center
Sat 12:13:38 PM 44.8150 -98.3622 97° East 491 565 39,000  Level Minneapolis Center
Sat 12:14:40 PM 44.7978 -98.1714 97° East 493 567 39,000  Level Minneapolis Center
Sat 12:15:42 PM 44.7811 -97.9819 97° East 490 564 39,000  Level Minneapolis Center
Sat 12:16:44 PM 44.7628 -97.7956 98° East 485 558 39,000  Level Minneapolis Center
Sat 12:17:46 PM 44.7383 -97.5731 99° East 481 554 39,000  Level Minneapolis Center
Sat 12:18:48 PM 44.7200 -97.3883 98° East 478 550 39,000  Level Minneapolis Center
Sat 12:19:50 PM 44.7014 -97.2036 98° East 479 551 39,000  Level Minneapolis Center
Sat 12:20:52 PM 44.6825 -97.0178 98° East 480 552 39,000  Level Minneapolis Center
Sat 12:21:54 PM 44.6619 -96.8317 99° East 482 555 39,000  Level Minneapolis Center
Sat 12:22:56 PM 44.6417 -96.6444 99° East 484 557 39,000 -242 Level Minneapolis Center
Sat 12:23:58 PM 44.6208 -96.4553 99° East 487 560 38,500 -774 Descending Minneapolis Center
Sat 12:25:00 PM 44.5981 -96.2339 98° East 476 548 37,400 -1,065 Descending Minneapolis Center
Sat 12:26:02 PM 44.5772 -96.0522 99° East 469 540 36,300 -968 Descending Minneapolis Center
Sat 12:27:04 PM 44.5750 -95.8689 91° East 470 541 35,400 -1,500 Descending Minneapolis Center
Sat 12:28:06 PM 44.5883 -95.6881 84° East 467 537 33,200 -2,516 Descending Minneapolis Center
Sat 12:29:08 PM 44.6028 -95.5061 84° East 467 537 30,200 -2,903 Descending Minneapolis Center
Sat 12:30:10 PM 44.6167 -95.3253 84° East 467 537 27,200 -2,710 Descending Minneapolis Center
Sat 12:31:12 PM 44.6286 -95.1486 85° East 460 529 24,600 -2,758 Descending Minneapolis Center
Sat 12:32:14 PM 44.6428 -94.9433 84° East 446 513 21,500 -2,710 Descending Minneapolis Center
Sat 12:33:16 PM 44.6542 -94.7786 84° East 432 497 19,000 -2,226 Descending Minneapolis Center
Sat 12:34:18 PM 44.6625 -94.6503 85° East 421 484 16,900 -2,032 Descending Minneapolis Center
Sat 12:35:20 PM 44.6717 -94.5081 85° East 411 473 14,800 -2,419 Descending Minneapolis Center
Sat 12:36:22 PM 44.6850 -94.2964 85° East 390 449 11,900 -1,676 Descending Minneapolis Center
Sat 12:37:36 PM 44.6953 -94.1461 84° East 387 445 11,000 -657 Descending Minneapolis Center
Sat 12:38:39 PM 44.7336 -93.9781 72° East 373 429 10,400 -720 Descending Minneapolis Center
Sat 12:39:41 PM 44.7894 -93.8875 49° Northeast 304 350 9,500 -919 Descending Minneapolis Center
Sat 12:40:43 PM 44.8553 -93.8247 34° Northeast 286 329 8,500 -1,016 Descending Minneapolis Center
Sat 12:41:45 PM 44.9222 -93.7603 34° Northeast 241 277 7,400 -1,161 Descending Minneapolis Center
Sat 12:42:47 PM 44.9483 -93.6842 64° Northeast 240 276 6,100 -968 Descending Minneapolis Center
Sat 12:43:49 PM 44.9483 -93.5936 90° East 230 265 5,400 -823 Descending Minneapolis Center
Sat 12:44:51 PM 44.9472 -93.5111 91° East 213 245 4,400 -823 Descending Minneapolis Center
Sat 12:45:53 PM 44.9458 -93.4286 91° East 209 241 3,700 -677 Descending Minneapolis Center
Sat 12:46:55 PM 44.9403 -93.3514 96° East 201 231 3,000 -838 Descending Minneapolis Center
Sat 12:48:09 PM 44.9131 -93.2917 123° Southeast 182 209 1,800 -973 Descending Minneapolis Center

Login

Don't have an account? Register now (free) for customized features, flight alerts, and more!